Terminal Aerodrome Forecast
Issued by NWS

Home | Current Version | Previous Version | Graphics & Text | Print | Product List | Glossary On
Versions: 1 2 3 4 5 6 7 8 9 10 11 12 13 14 15 16 17
466
FTUS41 KCLE 260842 AAB
TAFFDY
TAF AMD
KFDY 260842Z 2609/2706 17008KT 6SM -SHRA VCTS OVC035CB
      TEMPO 2609/2611 2SM -TSRA OVC025CB
     FM261200 24012KT 5SM -SHRA OVC025
     FM261700 27012G20KT P6SM SCT025 OVC080
     FM262200 27008KT P6SM SCT100=

USA.gov is the U.S. government's official web portal to all federal, state and local government web resources and services.